Time;durP1;ratioP1;P1;durP2;ratioP2;P2;SDS_P1;SDS_P2;PMS_P1;PMS_P2;Temp;Humidity;BMP_temperature;BMP_pressure;BME280_temperature;BME280_humidity;BME280_pressure;Samples;Min_cycle;Max_cycle;Signal;HPM_P1;HPM_P2
2023/01/22 00:01:51;;;;;;;18.50;9.35;;;1.60;99.90;;;;;;5036289;28;20049;-40
2023/01/22 00:04:17;;;;;;;16.85;9.20;;;1.70;99.90;;;;;;5047545;28;20165;-40
2023/01/22 00:06:42;;;;;;;19.38;9.35;;;1.70;99.90;;;;;;5046418;28;20017;-40
2023/01/22 00:09:08;;;;;;;15.68;8.85;;;1.70;99.90;;;;;;5055045;28;20460;-41
2023/01/22 00:11:33;;;;;;;19.23;10.20;;;1.70;99.90;;;;;;5065424;28;20027;-41
2023/01/22 00:13:59;;;;;;;21.58;9.48;;;1.70;99.90;;;;;;5053543;28;20319;-41
2023/01/22 00:16:24;;;;;;;19.42;9.70;;;1.70;99.90;;;;;;5069170;28;20393;-41
2023/01/22 00:18:50;;;;;;;16.67;8.80;;;1.70;99.90;;;;;;5052462;28;20078;-41
2023/01/22 00:21:15;;;;;;;21.85;10.45;;;1.70;99.90;;;;;;5065294;28;20476;-40
2023/01/22 00:27:03;;;;;;;19.23;9.07;;;1.70;99.90;;;;;;5053077;28;20493;-41
2023/01/22 00:29:28;;;;;;;15.20;8.35;;;1.70;99.90;;;;;;5053478;28;20051;-41
2023/01/22 00:31:54;;;;;;;16.75;9.13;;;1.70;99.90;;;;;;5054640;28;20116;-40
2023/01/22 00:34:19;;;;;;;24.13;10.27;;;1.70;99.90;;;;;;5048737;28;20548;-41
2023/01/22 00:36:45;;;;;;;18.13;10.05;;;1.70;99.90;;;;;;5043688;28;20021;-41
2023/01/22 00:39:10;;;;;;;17.40;9.15;;;1.70;99.90;;;;;;5045344;28;20229;-41
2023/01/22 00:41:36;;;;;;;16.48;8.82;;;1.70;99.90;;;;;;5030602;28;20032;-40
2023/01/22 00:44:02;;;;;;;17.98;8.93;;;1.70;99.90;;;;;;5053373;28;20028;-40
2023/01/22 00:46:28;;;;;;;17.67;9.45;;;1.70;99.90;;;;;;5067998;28;20063;-40
2023/01/22 00:48:53;;;;;;;15.82;8.75;;;1.80;99.90;;;;;;5069214;28;20043;-40
2023/01/22 00:51:19;;;;;;;16.95;8.80;;;1.80;99.90;;;;;;5069633;28;20033;-40
2023/01/22 00:53:45;;;;;;;18.50;9.45;;;1.80;99.90;;;;;;5062541;28;20013;-40
2023/01/22 00:56:12;;;;;;;15.80;8.65;;;1.80;99.90;;;;;;5070036;28;20020;-40
2023/01/22 01:02:00;;;;;;;14.85;8.88;;;1.80;99.90;;;;;;5070870;28;20108;-40
2023/01/22 01:04:25;;;;;;;16.17;9.07;;;1.70;99.90;;;;;;5070577;28;20103;-40
2023/01/22 01:06:51;;;;;;;16.98;8.48;;;1.80;99.90;;;;;;5068909;28;20259;-40
2023/01/22 01:09:16;;;;;;;15.75;8.35;;;1.80;99.90;;;;;;5069161;28;20036;-40
2023/01/22 01:11:42;;;;;;;15.48;9.00;;;1.70;99.90;;;;;;5069963;28;20025;-40
2023/01/22 01:14:07;;;;;;;17.83;9.32;;;1.70;99.90;;;;;;5070268;28;20020;-40
2023/01/22 01:16:34;;;;;;;17.30;10.15;;;1.70;99.90;;;;;;5070377;28;20051;-40
2023/01/22 01:19:02;;;;;;;17.77;9.15;;;1.70;99.90;;;;;;5070338;28;20017;-40
2023/01/22 01:21:28;;;;;;;13.77;8.73;;;1.70;99.90;;;;;;5069918;28;20478;-40
2023/01/22 01:23:56;;;;;;;17.58;9.55;;;1.70;99.90;;;;;;5061905;28;20024;-40
2023/01/22 01:26:22;;;;;;;13.95;8.45;;;1.70;99.90;;;;;;5069284;28;20025;-40
2023/01/22 01:28:51;;;;;;;13.35;8.13;;;1.60;99.90;;;;;;5070224;28;20104;-40
2023/01/22 01:31:20;;;;;;;13.95;7.97;;;1.70;99.90;;;;;;5070161;28;20108;-40
2023/01/22 01:33:46;;;;;;;13.45;7.90;;;1.60;99.90;;;;;;5068804;28;20489;-40
2023/01/22 01:36:20;;;;;;;12.75;7.95;;;1.60;99.90;;;;;;5069561;28;20512;-40
2023/01/22 01:38:47;;;;;;;15.15;7.38;;;1.60;99.90;;;;;;5055381;28;20029;-40
2023/01/22 01:41:15;;;;;;;17.20;8.38;;;1.60;99.90;;;;;;5049016;28;20027;-40
2023/01/22 01:43:41;;;;;;;13.48;8.05;;;1.60;99.90;;;;;;5049917;28;20029;-40
2023/01/22 01:46:21;;;;;;;12.55;8.25;;;1.60;99.90;;;;;;5049483;28;20372;-40
2023/01/22 01:48:51;;;;;;;13.93;8.32;;;1.60;99.90;;;;;;5050334;28;20086;-40
2023/01/22 01:51:24;;;;;;;14.73;7.53;;;1.60;99.90;;;;;;5049378;28;20065;-40
2023/01/22 01:53:50;;;;;;;13.18;7.68;;;1.60;99.90;;;;;;5061389;28;20016;-41
2023/01/22 01:56:23;;;;;;;12.93;7.82;;;1.60;99.90;;;;;;5068898;28;20089;-41
2023/01/22 01:58:54;;;;;;;16.65;8.43;;;1.60;99.90;;;;;;5069294;28;20021;-40
2023/01/22 02:01:20;;;;;;;16.52;8.27;;;1.60;99.90;;;;;;5069784;28;20050;-40
2023/01/22 02:03:46;;;;;;;14.40;7.55;;;1.60;99.90;;;;;;5069648;28;20059;-40
2023/01/22 02:06:15;;;;;;;13.00;9.13;;;1.70;99.90;;;;;;5069128;28;20089;-40
2023/01/22 02:08:43;;;;;;;15.07;9.20;;;1.70;99.90;;;;;;5068652;28;20509;-40
2023/01/22 02:11:09;;;;;;;14.18;8.40;;;1.70;99.90;;;;;;5068968;28;20024;-40
2023/01/22 02:13:38;;;;;;;16.80;9.23;;;1.60;99.90;;;;;;5069198;28;20138;-40
2023/01/22 02:16:04;;;;;;;14.75;7.95;;;1.70;99.90;;;;;;5068758;28;20017;-40
2023/01/22 02:18:30;;;;;;;13.02;9.05;;;1.60;99.90;;;;;;5068945;28;20099;-40
2023/01/22 02:20:57;;;;;;;14.85;8.57;;;1.60;99.90;;;;;;5069217;28;20146;-40
2023/01/22 02:23:24;;;;;;;14.52;9.25;;;1.60;99.90;;;;;;5060560;28;20398;-40
2023/01/22 02:25:49;;;;;;;12.23;8.38;;;1.60;99.90;;;;;;5068000;28;20040;-40
2023/01/22 02:28:15;;;;;;;14.40;8.95;;;1.60;99.90;;;;;;5069217;28;20444;-40
2023/01/22 02:30:41;;;;;;;12.60;8.07;;;1.60;99.90;;;;;;5069322;28;20025;-40
2023/01/22 02:33:07;;;;;;;14.88;9.48;;;1.60;99.90;;;;;;5067490;28;20016;-40
2023/01/22 02:35:32;;;;;;;15.60;8.50;;;1.60;99.90;;;;;;5068327;28;20078;-40
2023/01/22 02:37:58;;;;;;;17.60;9.30;;;1.60;99.90;;;;;;5068920;28;20464;-40
2023/01/22 02:40:23;;;;;;;16.13;9.40;;;1.60;99.90;;;;;;5060285;28;20436;-40
2023/01/22 02:42:49;;;;;;;16.98;9.77;;;1.60;99.90;;;;;;5062254;28;20405;-40
2023/01/22 02:45:15;;;;;;;15.60;9.32;;;1.50;99.90;;;;;;5068245;28;20585;-40
2023/01/22 02:47:40;;;;;;;17.27;9.82;;;1.60;99.90;;;;;;5067638;28;20033;-40
2023/01/22 02:50:06;;;;;;;15.95;9.32;;;1.50;99.90;;;;;;5068597;28;20055;-40
2023/01/22 02:52:32;;;;;;;15.45;9.40;;;1.60;99.90;;;;;;5068872;28;20035;-40
2023/01/22 02:54:58;;;;;;;16.17;8.82;;;1.60;99.90;;;;;;5067949;28;20028;-40
2023/01/22 02:57:23;;;;;;;18.25;10.30;;;1.60;99.90;;;;;;5067871;28;20078;-40
2023/01/22 02:59:49;;;;;;;15.10;9.73;;;1.60;99.90;;;;;;5068684;28;20394;-40
2023/01/22 03:02:15;;;;;;;16.55;8.98;;;1.60;99.90;;;;;;5068682;28;20139;-39
2023/01/22 03:04:40;;;;;;;15.13;8.77;;;1.60;99.90;;;;;;5066859;28;20073;-40
2023/01/22 03:07:05;;;;;;;15.00;8.57;;;1.60;99.90;;;;;;5067322;28;20017;-40
2023/01/22 03:09:31;;;;;;;16.48;9.00;;;1.60;99.90;;;;;;5063040;28;20043;-40
2023/01/22 03:11:57;;;;;;;16.50;9.48;;;1.60;99.90;;;;;;5059568;28;20031;-40
2023/01/22 03:22:36;;;;;;;15.07;9.20;;;1.50;99.90;;;;;;5072891;28;20039;-40
2023/01/22 03:25:01;;;;;;;16.05;9.38;;;1.50;99.90;;;;;;5072551;28;20024;-40
2023/01/22 03:27:29;;;;;;;18.52;10.52;;;1.50;99.90;;;;;;5072287;28;20103;-40
2023/01/22 03:29:54;;;;;;;14.13;9.63;;;1.50;99.90;;;;;;5072426;28;20024;-40
2023/01/22 03:32:21;;;;;;;16.73;8.93;;;1.50;99.90;;;;;;5068440;28;20435;-40
2023/01/22 03:34:46;;;;;;;17.15;9.88;;;1.40;99.90;;;;;;5038331;28;20029;-40
2023/01/22 03:37:12;;;;;;;17.67;10.90;;;1.40;99.90;;;;;;5050852;28;20048;-40
2023/01/22 03:39:39;;;;;;;19.30;10.43;;;1.40;99.90;;;;;;5052862;28;20074;-40
2023/01/22 03:42:05;;;;;;;18.42;10.43;;;1.40;99.90;;;;;;5063772;28;20031;-40
2023/01/22 03:44:31;;;;;;;18.40;10.32;;;1.40;99.90;;;;;;5072185;28;20274;-40
2023/01/22 03:46:57;;;;;;;17.40;10.55;;;1.40;99.90;;;;;;5072366;28;20385;-40
2023/01/22 03:49:22;;;;;;;17.83;9.38;;;1.30;99.90;;;;;;5060425;28;20025;-40
2023/01/22 03:51:48;;;;;;;17.58;9.48;;;1.30;99.90;;;;;;5072098;28;20173;-40
2023/01/22 03:54:15;;;;;;;19.45;10.30;;;1.40;99.90;;;;;;5057548;28;20036;-40
2023/01/22 03:56:41;;;;;;;16.80;9.70;;;1.30;99.90;;;;;;5051389;28;20389;-40
2023/01/22 03:59:08;;;;;;;21.15;9.57;;;1.30;99.90;;;;;;5051505;28;20018;-40
2023/01/22 04:01:34;;;;;;;17.25;9.27;;;1.30;99.90;;;;;;5051580;28;20313;-40
2023/01/22 04:04:00;;;;;;;19.20;9.50;;;1.30;99.90;;;;;;5051811;28;20021;-40
2023/01/22 04:06:26;;;;;;;20.35;9.68;;;1.30;99.90;;;;;;5051067;28;20458;-40
2023/01/22 04:08:53;;;;;;;18.25;9.93;;;1.30;99.90;;;;;;5051396;28;20104;-40
2023/01/22 04:11:20;;;;;;;18.20;8.90;;;1.30;99.90;;;;;;5050897;28;20078;-40
2023/01/22 04:13:46;;;;;;;16.95;8.77;;;1.30;99.90;;;;;;5051291;28;20036;-40
2023/01/22 04:16:13;;;;;;;17.55;8.23;;;1.30;99.90;;;;;;5051144;28;20024;-40
2023/01/22 04:18:40;;;;;;;15.07;8.57;;;1.30;99.90;;;;;;5058250;28;20272;-40
2023/01/22 04:21:06;;;;;;;17.65;8.73;;;1.30;99.90;;;;;;5067035;28;20055;-40
2023/01/22 04:23:32;;;;;;;13.88;7.60;;;1.30;99.90;;;;;;5071371;28;20032;-40
2023/01/22 04:25:57;;;;;;;13.73;7.80;;;1.30;99.90;;;;;;5070862;28;20029;-40
2023/01/22 04:28:23;;;;;;;15.85;8.23;;;1.30;99.90;;;;;;5071293;28;20098;-40
2023/01/22 04:30:51;;;;;;;13.45;6.85;;;1.30;99.90;;;;;;5069934;28;20032;-40
2023/01/22 04:33:16;;;;;;;12.90;7.28;;;1.20;99.90;;;;;;5070197;28;20550;-40
2023/01/22 04:35:42;;;;;;;16.35;7.40;;;1.20;99.90;;;;;;5070247;28;20033;-40
2023/01/22 04:38:11;;;;;;;19.80;8.52;;;1.20;99.90;;;;;;5070852;28;20024;-40
2023/01/22 04:40:37;;;;;;;16.00;8.30;;;1.20;99.90;;;;;;5058141;28;20056;-40
2023/01/22 04:43:07;;;;;;;14.75;7.28;;;1.20;99.90;;;;;;5050194;28;20064;-40
2023/01/22 04:45:33;;;;;;;16.33;7.65;;;1.20;99.90;;;;;;5050727;28;20071;-40
2023/01/22 04:47:59;;;;;;;16.65;8.35;;;1.20;99.90;;;;;;5052912;28;20057;-40
2023/01/22 04:50:29;;;;;;;21.25;8.55;;;1.10;99.90;;;;;;5059274;28;20445;-40
2023/01/22 04:52:55;;;;;;;16.80;7.68;;;1.10;99.90;;;;;;5051039;28;20029;-40
2023/01/22 04:55:22;;;;;;;16.50;8.38;;;1.10;99.90;;;;;;5050171;28;20033;-40
2023/01/22 04:57:47;;;;;;;16.17;8.35;;;1.10;99.90;;;;;;5050024;28;20111;-40
2023/01/22 05:00:13;;;;;;;15.80;8.15;;;1.20;99.90;;;;;;5050682;28;20108;-40
2023/01/22 05:02:39;;;;;;;14.80;7.55;;;1.20;99.90;;;;;;5050888;28;20429;-40
2023/01/22 05:05:07;;;;;;;15.95;7.75;;;1.10;99.90;;;;;;5050442;28;20064;-40
2023/01/22 05:07:32;;;;;;;14.30;8.02;;;1.20;99.90;;;;;;5050804;28;20025;-40
2023/01/22 05:09:58;;;;;;;13.63;7.95;;;1.20;99.90;;;;;;5050877;28;20052;-40
2023/01/22 05:12:23;;;;;;;14.10;7.30;;;1.20;99.90;;;;;;5048582;28;20111;-40
2023/01/22 05:14:49;;;;;;;13.73;7.30;;;1.20;99.90;;;;;;5049003;28;20044;-40
2023/01/22 05:17:14;;;;;;;13.65;7.50;;;1.20;99.90;;;;;;5049749;28;20028;-40
2023/01/22 05:19:40;;;;;;;11.90;6.75;;;1.20;99.90;;;;;;5061876;28;20058;-40
2023/01/22 05:22:05;;;;;;;13.88;6.53;;;1.20;99.90;;;;;;5069067;28;20123;-40
2023/01/22 05:24:31;;;;;;;13.63;7.13;;;1.20;99.90;;;;;;5070302;28;20035;-40
2023/01/22 05:26:56;;;;;;;14.75;6.55;;;1.10;99.90;;;;;;5069939;28;20511;-40
2023/01/22 05:29:25;;;;;;;12.65;6.95;;;1.10;99.90;;;;;;5070274;28;20041;-40
2023/01/22 05:31:56;;;;;;;14.30;6.65;;;1.10;99.90;;;;;;5070254;28;20028;-39
2023/01/22 05:34:23;;;;;;;10.60;6.15;;;1.10;99.90;;;;;;5069382;28;20074;-39
2023/01/22 05:36:48;;;;;;;13.15;6.28;;;1.10;99.90;;;;;;5069334;28;20039;-40
2023/01/22 05:39:15;;;;;;;11.52;6.55;;;1.10;99.90;;;;;;5069725;28;20021;-39
2023/01/22 05:41:41;;;;;;;11.27;6.28;;;1.10;99.90;;;;;;5069687;28;20033;-40
2023/01/22 05:44:11;;;;;;;11.18;5.75;;;1.10;99.90;;;;;;5069796;28;20389;-40
2023/01/22 05:46:37;;;;;;;12.50;6.53;;;1.20;99.90;;;;;;5069525;28;20032;-40
2023/01/22 05:49:03;;;;;;;18.10;6.80;;;1.10;99.90;;;;;;5061139;28;20021;-40
2023/01/22 05:51:29;;;;;;;12.95;6.30;;;1.10;99.90;;;;;;5068447;28;20236;-40
2023/01/22 05:53:54;;;;;;;11.68;6.18;;;1.10;99.90;;;;;;5069477;28;20108;-40
2023/01/22 05:56:20;;;;;;;9.95;5.65;;;1.10;99.90;;;;;;5067420;28;20078;-40
2023/01/22 05:58:45;;;;;;;10.30;5.65;;;1.10;99.90;;;;;;5069600;28;20017;-40
2023/01/22 06:01:11;;;;;;;15.55;6.45;;;1.10;99.90;;;;;;5069256;28;20065;-40
2023/01/22 06:03:37;;;;;;;11.93;6.53;;;1.10;99.90;;;;;;5069598;28;20432;-40
2023/01/22 06:06:09;;;;;;;12.35;5.68;;;1.10;99.90;;;;;;5051000;28;20033;-40
2023/01/22 06:08:34;;;;;;;13.77;6.43;;;1.10;99.90;;;;;;5069181;28;20028;-40
2023/01/22 06:11:12;;;;;;;11.23;6.30;;;1.10;99.90;;;;;;5069005;28;20024;-40
2023/01/22 06:13:38;;;;;;;12.45;6.15;;;1.10;99.90;;;;;;5042053;28;20021;-40
2023/01/22 06:16:05;;;;;;;10.60;6.15;;;1.10;99.90;;;;;;5037985;28;20082;-40
2023/01/22 06:18:31;;;;;;;10.18;5.50;;;1.10;99.90;;;;;;5054968;28;20038;-40
2023/01/22 06:21:01;;;;;;;10.75;5.85;;;1.10;99.90;;;;;;5063705;28;20023;-40
2023/01/22 06:23:28;;;;;;;13.77;6.15;;;1.10;99.90;;;;;;5065119;28;20033;-40
2023/01/22 06:25:55;;;;;;;99.22;40.58;;;1.10;99.90;;;;;;5061250;28;20572;-40
2023/01/22 06:28:21;;;;;;;34.78;15.55;;;1.10;99.90;;;;;;5069540;28;20182;-41
2023/01/22 06:30:47;;;;;;;15.82;7.78;;;1.10;99.90;;;;;;5067953;28;20067;-40
2023/01/22 06:33:12;;;;;;;11.18;6.57;;;1.10;99.90;;;;;;5044960;28;20458;-41
2023/01/22 06:35:38;;;;;;;8.55;5.28;;;1.10;99.90;;;;;;5038712;28;20375;-40
2023/01/22 06:38:04;;;;;;;10.70;5.13;;;1.10;99.90;;;;;;5037520;28;20032;-40
2023/01/22 06:40:29;;;;;;;9.40;4.78;;;1.10;99.90;;;;;;5052090;28;20428;-40
2023/01/22 06:42:56;;;;;;;13.60;5.00;;;1.10;99.90;;;;;;5068565;28;20421;-40
2023/01/22 06:45:23;;;;;;;11.68;5.57;;;1.10;99.90;;;;;;5057493;28;20075;-40
2023/01/22 06:47:48;;;;;;;11.13;5.28;;;1.10;99.90;;;;;;5048671;28;20032;-40
2023/01/22 06:50:14;;;;;;;9.20;5.10;;;1.10;99.90;;;;;;5048419;28;20025;-40
2023/01/22 06:52:40;;;;;;;10.35;5.25;;;1.10;99.90;;;;;;5050571;28;20545;-40
2023/01/22 06:55:06;;;;;;;9.05;5.07;;;1.10;99.90;;;;;;5053187;28;20067;-41
2023/01/22 06:57:31;;;;;;;8.63;5.03;;;1.10;99.90;;;;;;5046121;28;20032;-40
2023/01/22 06:59:57;;;;;;;10.80;5.05;;;1.10;99.90;;;;;;5046662;28;20013;-40
2023/01/22 07:02:22;;;;;;;8.35;5.05;;;1.20;99.90;;;;;;5046151;28;20021;-40
2023/01/22 07:04:48;;;;;;;11.25;6.68;;;1.20;99.90;;;;;;5043424;28;20022;-40
2023/01/22 07:07:13;;;;;;;8.60;4.78;;;1.20;99.90;;;;;;5042187;28;20044;-40
2023/01/22 07:09:39;;;;;;;10.35;6.10;;;1.20;99.90;;;;;;5045780;28;20112;-40
2023/01/22 07:12:05;;;;;;;10.68;5.72;;;1.20;99.90;;;;;;5045915;28;20178;-40
2023/01/22 07:14:30;;;;;;;12.40;6.30;;;1.20;99.90;;;;;;5041634;28;20471;-40
2023/01/22 07:16:56;;;;;;;8.93;4.95;;;1.20;99.90;;;;;;5043844;28;20017;-39
2023/01/22 07:19:22;;;;;;;12.35;5.32;;;1.20;99.90;;;;;;5058247;28;20031;-39
2023/01/22 07:21:48;;;;;;;11.18;5.28;;;1.20;99.90;;;;;;5051781;28;20640;-39
2023/01/22 07:24:13;;;;;;;8.93;5.13;;;1.20;99.90;;;;;;5064905;28;20029;-40
2023/01/22 07:26:39;;;;;;;9.65;5.57;;;1.20;99.90;;;;;;5056750;28;20029;-40
2023/01/22 07:29:05;;;;;;;11.98;5.43;;;1.20;99.90;;;;;;5055373;28;20112;-40
2023/01/22 07:31:30;;;;;;;12.05;6.07;;;1.20;99.90;;;;;;5064523;28;20035;-40
2023/01/22 07:33:56;;;;;;;8.10;4.88;;;1.30;99.90;;;;;;5051473;28;20413;-40
2023/01/22 07:36:22;;;;;;;10.20;5.38;;;1.30;99.90;;;;;;5060639;28;20032;-40
2023/01/22 07:38:48;;;;;;;12.48;5.40;;;1.30;99.90;;;;;;5058178;28;20481;-39
2023/01/22 07:41:13;;;;;;;12.18;5.65;;;1.30;99.90;;;;;;5053980;28;20348;-40
2023/01/22 07:43:39;;;;;;;13.10;5.82;;;1.30;99.90;;;;;;5047662;28;20028;-40
2023/01/22 07:46:05;;;;;;;8.88;5.25;;;1.30;99.90;;;;;;5060060;28;20099;-40
2023/01/22 07:48:31;;;;;;;10.52;5.47;;;1.30;99.90;;;;;;5059622;28;20044;-40
2023/01/22 07:51:01;;;;;;;16.52;6.00;;;1.30;99.90;;;;;;5054752;28;20038;-39
2023/01/22 07:53:27;;;;;;;12.15;6.03;;;1.40;99.90;;;;;;5053771;28;20070;-39
2023/01/22 07:55:53;;;;;;;14.68;6.10;;;1.30;99.90;;;;;;5042691;28;20021;-39
2023/01/22 07:58:19;;;;;;;11.48;6.30;;;1.40;99.90;;;;;;5048100;28;20021;-40
2023/01/22 08:00:45;;;;;;;13.30;5.63;;;1.40;99.90;;;;;;5056539;28;20409;-40
2023/01/22 08:03:12;;;;;;;10.07;5.72;;;1.40;99.90;;;;;;5051466;28;20039;-40
2023/01/22 08:05:38;;;;;;;12.82;5.97;;;1.40;99.90;;;;;;5047093;28;20051;-40
2023/01/22 08:08:05;;;;;;;12.60;5.75;;;1.50;99.90;;;;;;5052268;28;20033;-39
2023/01/22 08:10:31;;;;;;;9.88;5.40;;;1.50;99.90;;;;;;5046628;28;20029;-39
2023/01/22 08:12:56;;;;;;;13.50;6.45;;;1.60;99.90;;;;;;5044338;28;20609;-40
2023/01/22 08:15:22;;;;;;;12.93;5.78;;;1.60;99.90;;;;;;5039104;28;20505;-40
2023/01/22 08:17:49;;;;;;;11.15;6.18;;;1.50;99.90;;;;;;5047762;28;20063;-39
2023/01/22 08:20:15;;;;;;;13.75;5.57;;;1.60;99.90;;;;;;5039959;28;20372;-39
2023/01/22 08:22:42;;;;;;;10.80;5.75;;;1.60;99.90;;;;;;5049288;28;20100;-40
2023/01/22 08:25:08;;;;;;;10.93;6.03;;;1.60;99.90;;;;;;5038417;28;20095;-39
2023/01/22 08:27:34;;;;;;;12.75;6.25;;;1.70;99.90;;;;;;5049043;28;20477;-39
2023/01/22 08:30:00;;;;;;;14.77;6.88;;;1.70;99.90;;;;;;5040422;28;20371;-40
2023/01/22 08:32:26;;;;;;;13.50;7.00;;;1.60;99.90;;;;;;5050459;28;20540;-40
2023/01/22 08:34:53;;;;;;;10.38;6.32;;;1.70;99.90;;;;;;5052770;28;20021;-40
2023/01/22 08:37:19;;;;;;;10.63;5.93;;;1.60;99.90;;;;;;5047658;28;20029;-40
2023/01/22 08:39:45;;;;;;;11.20;6.45;;;1.60;99.90;;;;;;5057449;28;20028;-40
2023/01/22 08:42:10;;;;;;;11.75;5.97;;;1.70;99.90;;;;;;5043123;28;20510;-40
2023/01/22 08:44:36;;;;;;;12.25;5.30;;;1.70;99.90;;;;;;5061638;28;20024;-40
2023/01/22 08:47:02;;;;;;;10.18;5.82;;;1.70;99.90;;;;;;5052300;28;20430;-39
2023/01/22 08:49:29;;;;;;;10.15;5.40;;;1.70;99.90;;;;;;5050229;28;20088;-40
2023/01/22 08:51:55;;;;;;;9.23;5.40;;;1.70;99.90;;;;;;5049634;28;20025;-40
2023/01/22 08:54:21;;;;;;;8.48;5.75;;;1.70;99.90;;;;;;5041512;28;20024;-40
2023/01/22 08:56:47;;;;;;;10.75;5.53;;;1.70;99.90;;;;;;5048279;28;20528;-40
2023/01/22 08:59:13;;;;;;;12.50;5.13;;;1.70;99.90;;;;;;5050313;28;20355;-40
2023/01/22 09:01:38;;;;;;;8.82;5.60;;;1.70;99.90;;;;;;5049140;28;20479;-40
2023/01/22 09:04:08;;;;;;;12.35;5.53;;;1.60;99.90;;;;;;5050502;28;20087;-40
2023/01/22 09:06:35;;;;;;;11.32;5.93;;;1.60;99.90;;;;;;5050049;28;20502;-39
2023/01/22 09:09:00;;;;;;;8.30;5.22;;;1.60;99.90;;;;;;5050860;28;20038;-39
2023/01/22 09:11:28;;;;;;;11.52;5.75;;;1.60;99.90;;;;;;5050236;28;20033;-44
2023/01/22 09:13:55;;;;;;;8.23;5.43;;;1.60;99.90;;;;;;5050108;28;20094;-39
2023/01/22 09:16:22;;;;;;;9.40;5.55;;;1.60;99.90;;;;;;5035014;28;20040;-39
2023/01/22 09:18:47;;;;;;;9.38;5.53;;;1.60;99.90;;;;;;5034008;28;20026;-39
2023/01/22 09:21:13;;;;;;;7.85;5.65;;;1.60;99.90;;;;;;5036075;28;20064;-39
2023/01/22 09:23:38;;;;;;;9.65;5.40;;;1.60;99.90;;;;;;5049312;28;20028;-39
2023/01/22 09:26:04;;;;;;;8.50;5.68;;;1.70;99.90;;;;;;5049304;28;20020;-38
2023/01/22 09:28:30;;;;;;;14.32;5.95;;;1.70;99.90;;;;;;5049657;28;20123;-39
2023/01/22 09:30:55;;;;;;;11.40;5.97;;;1.70;99.90;;;;;;5049816;28;20488;-39
2023/01/22 09:33:21;;;;;;;13.95;7.28;;;1.70;99.90;;;;;;5049717;28;20033;-40
2023/01/22 09:35:46;;;;;;;9.77;5.97;;;1.70;99.90;;;;;;5049423;28;20021;-39
2023/01/22 09:38:13;;;;;;;9.38;6.00;;;1.70;99.90;;;;;;5048713;28;20035;-39
2023/01/22 09:40:56;;;;;;;15.02;6.78;;;1.70;99.90;;;;;;5049005;28;20021;-40
2023/01/22 09:43:35;;;;;;;10.05;6.65;;;1.70;99.90;;;;;;5049287;28;20036;-39
2023/01/22 09:46:05;;;;;;;9.15;5.55;;;1.80;99.90;;;;;;5048544;28;20040;-40
2023/01/22 09:48:38;;;;;;;9.55;5.88;;;1.80;99.90;;;;;;5049918;28;20018;-39
2023/01/22 09:51:04;;;;;;;12.18;7.70;;;1.80;99.90;;;;;;5049144;28;20041;-39
2023/01/22 09:53:30;;;;;;;9.68;6.05;;;1.80;99.90;;;;;;5049487;28;20025;-39
2023/01/22 09:55:56;;;;;;;10.07;6.68;;;1.80;99.90;;;;;;5047802;28;20058;-39
2023/01/22 09:58:25;;;;;;;11.95;6.90;;;1.80;99.90;;;;;;5047958;28;20021;-39
2023/01/22 10:01:01;;;;;;;12.55;6.97;;;1.80;99.90;;;;;;5049349;28;20021;-39
2023/01/22 10:03:41;;;;;;;12.13;6.82;;;1.90;99.90;;;;;;5048064;28;20789;-39
2023/01/22 10:06:13;;;;;;;12.13;6.80;;;1.90;99.90;;;;;;5048525;28;20104;-39
2023/01/22 10:09:02;;;;;;;13.48;7.43;;;1.90;99.90;;;;;;5049376;28;20030;-38
2023/01/22 10:11:28;;;;;;;15.85;9.23;;;1.90;99.90;;;;;;5049458;28;20017;-39
2023/01/22 10:13:56;;;;;;;10.50;7.30;;;1.90;99.90;;;;;;5049261;28;20382;-39
2023/01/22 10:16:22;;;;;;;16.35;7.63;;;1.90;99.90;;;;;;5047263;28;20029;-39
2023/01/22 10:18:53;;;;;;;13.98;8.02;;;1.90;99.90;;;;;;5048797;28;20029;-39
2023/01/22 10:21:32;;;;;;;14.40;7.72;;;1.90;99.90;;;;;;5049293;28;20036;-39
2023/01/22 10:23:58;;;;;;;13.63;8.52;;;1.90;99.90;;;;;;5049533;28;20564;-39
2023/01/22 10:26:46;;;;;;;13.45;8.18;;;1.90;99.90;;;;;;5048744;28;20168;-38
2023/01/22 10:29:36;;;;;;;17.60;8.15;;;1.90;99.90;;;;;;5049218;28;20040;-39
2023/01/22 10:32:26;;;;;;;13.02;8.05;;;1.90;99.90;;;;;;5041864;28;20040;-39
2023/01/22 10:35:06;;;;;;;12.75;7.97;;;1.80;99.90;;;;;;5047176;28;20048;-39
2023/01/22 10:37:44;;;;;;;13.55;7.88;;;1.90;99.90;;;;;;5049051;28;20029;-39
2023/01/22 10:40:22;;;;;;;13.45;8.20;;;1.90;99.90;;;;;;5047293;28;20036;-40
2023/01/22 10:43:05;;;;;;;15.55;8.82;;;2.00;99.90;;;;;;5049146;28;20112;-39
2023/01/22 10:45:31;;;;;;;16.17;9.40;;;2.00;99.90;;;;;;5047215;28;20429;-39
2023/01/22 10:48:14;;;;;;;22.63;10.80;;;2.00;99.90;;;;;;5048928;28;20029;-39
2023/01/22 10:50:41;;;;;;;16.13;9.65;;;2.00;99.90;;;;;;5049095;28;20055;-39
2023/01/22 10:53:18;;;;;;;18.35;9.60;;;2.00;99.90;;;;;;5048746;28;20029;-39
2023/01/22 10:55:54;;;;;;;15.30;9.35;;;1.90;99.90;;;;;;5048103;28;20036;-40
2023/01/22 10:58:21;;;;;;;16.35;9.25;;;1.90;99.90;;;;;;5048590;28;20035;-40
2023/01/22 11:01:00;;;;;;;16.30;9.52;;;2.00;99.90;;;;;;5048564;28;20363;-40
2023/01/22 11:03:33;;;;;;;13.55;8.07;;;2.00;99.90;;;;;;5048513;28;20017;-39
2023/01/22 11:06:10;;;;;;;17.75;9.10;;;2.00;99.90;;;;;;5048512;28;20367;-39
2023/01/22 11:08:56;;;;;;;13.85;9.13;;;2.00;99.90;;;;;;5048525;28;20028;-39
2023/01/22 11:11:31;;;;;;;15.07;8.88;;;2.10;99.90;;;;;;5048638;28;20029;-39
2023/01/22 11:14:13;;;;;;;17.25;8.88;;;2.10;99.90;;;;;;5048351;28;20025;-39
2023/01/22 11:16:41;;;;;;;17.73;9.25;;;2.10;99.90;;;;;;5046646;28;20051;-39
2023/01/22 11:19:15;;;;;;;16.23;8.80;;;2.00;99.90;;;;;;5047715;28;20028;-39
2023/01/22 11:21:51;;;;;;;15.77;8.88;;;2.00;99.90;;;;;;5048731;28;20024;-39
2023/01/22 11:24:35;;;;;;;14.43;8.32;;;2.00;99.90;;;;;;5048264;28;20496;-39
2023/01/22 11:27:06;;;;;;;12.93;8.38;;;2.00;99.90;;;;;;5047655;28;20025;-39
2023/01/22 11:29:40;;;;;;;15.75;9.68;;;2.10;99.90;;;;;;5047884;28;20401;-39
2023/01/22 11:32:27;;;;;;;15.93;10.15;;;2.10;99.90;;;;;;5048348;28;20035;-39
2023/01/22 11:34:58;;;;;;;13.98;9.02;;;2.10;99.90;;;;;;5047108;28;20068;-39
2023/01/22 11:37:47;;;;;;;18.38;10.80;;;2.10;99.90;;;;;;5039104;28;20330;-39
2023/01/22 11:40:20;;;;;;;14.77;8.98;;;2.10;99.90;;;;;;5034050;28;20051;-38
2023/01/22 11:42:58;;;;;;;17.90;10.57;;;2.10;99.90;;;;;;5043463;28;20017;-40
2023/01/22 11:45:46;;;;;;;15.20;9.82;;;2.10;99.90;;;;;;5051210;28;20017;-39
2023/01/22 11:48:49;;;;;;;13.75;9.00;;;2.10;99.90;;;;;;5051438;28;20056;-39
2023/01/22 11:51:24;;;;;;;15.82;9.93;;;2.10;99.90;;;;;;5051572;28;20029;-39
2023/01/22 11:54:01;;;;;;;15.55;9.57;;;2.20;99.90;;;;;;5051321;28;20067;-39
2023/01/22 11:56:48;;;;;;;19.27;9.75;;;2.20;99.90;;;;;;5050814;28;20027;-39
2023/01/22 11:59:29;;;;;;;15.32;9.52;;;2.20;99.90;;;;;;5050604;28;20101;-39
2023/01/22 12:02:07;;;;;;;15.00;9.77;;;2.20;99.90;;;;;;5049981;28;20175;-39
2023/01/22 12:04:51;;;;;;;17.13;9.65;;;2.30;99.90;;;;;;5050527;28;20340;-39
2023/01/22 12:07:53;;;;;;;17.23;9.90;;;2.20;99.90;;;;;;5051355;28;20025;-39
2023/01/22 12:10:40;;;;;;;16.98;9.50;;;2.10;99.90;;;;;;5048609;28;20485;-38
2023/01/22 12:13:09;;;;;;;17.52;10.35;;;2.20;99.90;;;;;;5051481;28;20440;-39
2023/01/22 12:15:43;;;;;;;17.70;9.60;;;2.20;99.90;;;;;;5050710;28;20341;-39
2023/01/22 12:18:27;;;;;;;17.67;10.30;;;2.30;99.90;;;;;;5049425;28;20437;-43
2023/01/22 12:21:01;;;;;;;14.07;9.35;;;2.30;99.90;;;;;;5050828;28;20025;-39
2023/01/22 12:23:33;;;;;;;22.42;11.57;;;2.30;99.90;;;;;;5050142;28;20029;-39
2023/01/22 12:26:16;;;;;;;15.77;10.65;;;2.20;99.90;;;;;;5049086;28;20051;-40
2023/01/22 12:29:01;;;;;;;19.02;11.55;;;2.20;99.90;;;;;;5049422;28;20056;-40
2023/01/22 12:31:33;;;;;;;16.42;10.13;;;2.30;99.90;;;;;;5049683;28;20032;-40
2023/01/22 12:34:03;;;;;;;16.88;10.50;;;2.30;99.90;;;;;;5049617;28;20127;-40
2023/01/22 12:36:31;;;;;;;25.05;11.50;;;2.20;99.90;;;;;;5049126;28;20146;-40
2023/01/22 12:39:02;;;;;;;18.85;11.07;;;2.20;99.90;;;;;;5049479;28;20021;-40
2023/01/22 12:41:45;;;;;;;23.10;11.88;;;2.20;99.90;;;;;;5050567;28;20017;-41
2023/01/22 12:44:29;;;;;;;21.52;12.10;;;2.20;99.90;;;;;;5051394;28;20485;-40
2023/01/22 12:47:39;;;;;;;19.52;11.98;;;2.30;99.90;;;;;;5050659;28;20028;-40
2023/01/22 12:50:16;;;;;;;20.63;11.43;;;2.20;99.90;;;;;;5046323;28;20033;-40
2023/01/22 12:52:42;;;;;;;18.30;10.82;;;2.10;99.90;;;;;;5047911;28;20059;-40
2023/01/22 12:55:36;;;;;;;28.77;11.93;;;2.10;99.90;;;;;;5049875;28;20021;-40
2023/01/22 12:58:03;;;;;;;20.48;11.73;;;2.20;99.90;;;;;;5050484;28;20036;-40
2023/01/22 13:00:34;;;;;;;24.38;13.15;;;2.20;99.90;;;;;;5050234;28;20103;-40
2023/01/22 13:03:20;;;;;;;25.75;14.15;;;2.20;99.90;;;;;;5049275;28;20100;-40
2023/01/22 13:05:45;;;;;;;22.90;12.77;;;2.20;99.90;;;;;;5049877;28;20029;-40
2023/01/22 13:08:17;;;;;;;19.80;12.77;;;2.20;99.90;;;;;;5050250;28;20367;-40
2023/01/22 13:10:56;;;;;;;22.58;11.82;;;2.20;99.90;;;;;;5042920;28;20500;-40